Walled Lake, Michigan
Current Conditions -  °F | °C
As of 2:53 AM on Tuesday 27 Jan 2015 (Local Time) from KPTK Reporting Station
Clear Clear  
Wind Chill:   Ceiling: Unl
Heat Index:   Visibility: 9mi
Dew Point:   Wind: 3mph
Humidity: 83%   Direction: 290°WNW
Pressure: 29.97"   Gusts: NA
Location:  42.54°N, 83.47°W
Report Text: KPTK 270753Z 29003KT 9SM CLR M13/M16 A2997 RMK AO2 SLP165 I1000 T11331156
Loading
Personal Weather Stations






























Interactive Weather Map New forecast layout! Learn more

10-Day Weather Forecast

Advertisements
Track Severe Weather on mobile